L'Anse-Saint-Jean, Canada
Current Conditions -  °F | °C
As of 3:00 PM on Monday 24 Nov 2014 (Local Time) from CYBG Reporting Station
Broken Clouds Broken Clouds  
Wind Chill: 38°   Ceiling: 8000
Heat Index: 45°   Visibility: 25mi
Dew Point: 39°   Wind: 15mph
Humidity: 81%   Direction: 90°E
Pressure: 29.29"   Gusts: NA
Location:  48.23°N, 70.18°W
Report Text: CYBG 242000Z 09013KT 25SM FEW035 SCT050 BKN080 07/04 A2929 RMK SC1SC2AC3 SLP925
Loading
Personal Weather Stations






























Interactive Weather Map New forecast layout! Learn more

10-Day Weather Forecast

Advertisements
Track Severe Weather on mobile